Saint Cloud, Minnesota
Current Conditions -  °F | °C
As of 1:53 PM on Friday 19 Dec 2014 (Local Time) from KSTC Reporting Station
Haze Haze  
Wind Chill: 19°   Ceiling: 800
Heat Index: 28°   Visibility: 4mi
Dew Point: 23°   Wind: 10mph
Humidity: 81%   Direction: 130°SE
Pressure: 30.14"   Gusts: NA
Location:  45.55°N, 94.06°W
Report Text: KSTC 191953Z 13009KT 4SM HZ OVC008 M02/M05 A3014 RMK AO2 SLP230 T10221050
Loading
Personal Weather Stations






























Interactive Weather Map New forecast layout! Learn more

10-Day Weather Forecast

Advertisements
Track Severe Weather on mobile